Time;durP1;ratioP1;P1;durP2;ratioP2;P2;SDS_P1;SDS_P2;PMS_P1;PMS_P2;Temp;Humidity;BMP_temperature;BMP_pressure;BME280_temperature;BME280_humidity;BME280_pressure;Samples;Min_cycle;Max_cycle;Signal;HPM_P1;HPM_P2
2022/06/19 00:00:38;;;;;;;0.70;0.70;;;25.40;46.70;;;;;;5090387;28;20048;-63
2022/06/19 00:03:09;;;;;;;0.60;0.60;;;25.40;46.80;;;;;;5091351;28;20079;-63
2022/06/19 00:05:36;;;;;;;0.57;0.57;;;25.40;46.80;;;;;;5091639;28;20051;-63
2022/06/19 00:08:04;;;;;;;0.77;0.77;;;25.40;46.80;;;;;;5091726;28;20455;-63
2022/06/19 00:10:31;;;;;;;0.65;0.60;;;25.40;46.90;;;;;;5090317;28;20767;-63
2022/06/19 00:12:58;;;;;;;0.70;0.70;;;25.40;46.90;;;;;;5091612;28;20075;-63
2022/06/19 00:15:26;;;;;;;0.60;0.60;;;25.30;46.80;;;;;;5091386;28;20055;-63
2022/06/19 00:17:53;;;;;;;0.63;0.63;;;25.30;46.90;;;;;;5091347;28;20087;-63
2022/06/19 00:20:21;;;;;;;0.77;0.77;;;25.30;46.90;;;;;;5091047;28;20378;-63
2022/06/19 00:22:48;;;;;;;3.38;1.33;;;25.30;46.90;;;;;;5091656;28;20442;-63
2022/06/19 00:25:15;;;;;;;0.63;0.63;;;25.30;46.90;;;;;;5090966;28;20131;-63
2022/06/19 00:27:43;;;;;;;0.60;0.60;;;25.30;47.00;;;;;;5091499;28;20625;-63
2022/06/19 00:30:12;;;;;;;0.57;0.57;;;25.30;47.00;;;;;;5106525;28;20082;-64
2022/06/19 00:32:39;;;;;;;0.60;0.60;;;25.30;47.00;;;;;;5111953;28;20108;-63
2022/06/19 00:35:08;;;;;;;0.80;0.80;;;25.30;47.00;;;;;;5111122;28;20450;-63
2022/06/19 00:37:36;;;;;;;0.55;0.55;;;25.30;47.60;;;;;;5110435;28;20106;-63
2022/06/19 00:40:07;;;;;;;0.80;0.80;;;25.30;47.10;;;;;;5111141;28;20069;-63
2022/06/19 00:42:34;;;;;;;0.80;0.80;;;25.20;47.00;;;;;;5110216;28;20069;-63
2022/06/19 00:45:03;;;;;;;1.63;0.95;;;25.30;47.10;;;;;;5111137;28;20043;-63
2022/06/19 00:47:35;;;;;;;0.70;0.70;;;25.20;47.10;;;;;;5111098;28;20048;-63
2022/06/19 00:50:22;;;;;;;0.98;0.98;;;25.30;47.20;;;;;;5109773;28;20133;-63
2022/06/19 00:52:50;;;;;;;0.70;0.70;;;25.20;47.10;;;;;;5110043;28;20090;-63
2022/06/19 00:55:25;;;;;;;0.80;0.80;;;25.30;47.20;;;;;;5111059;28;20124;-64
2022/06/19 00:58:05;;;;;;;1.33;0.70;;;25.20;47.10;;;;;;5111022;28;20087;-63
2022/06/19 01:00:32;;;;;;;;;;;25.20;47.10;;;;;;5111482;28;20842;-63
2022/06/19 01:03:07;;;;;;;0.57;0.57;;;25.20;47.10;;;;;;5109687;28;20303;-63
2022/06/19 01:05:36;;;;;;;0.80;0.80;;;25.20;47.20;;;;;;5109225;28;20426;-63
2022/06/19 01:08:04;;;;;;;0.70;0.70;;;25.20;47.70;;;;;;5110503;28;20044;-63
2022/06/19 01:10:37;;;;;;;0.88;0.88;;;25.20;47.20;;;;;;5110411;28;20828;-63
2022/06/19 01:13:05;;;;;;;0.63;0.63;;;25.20;47.20;;;;;;5109518;28;20487;-63
2022/06/19 01:15:33;;;;;;;0.50;0.50;;;25.20;47.30;;;;;;5110811;28;20079;-63
2022/06/19 01:18:03;;;;;;;0.80;0.80;;;25.20;47.30;;;;;;5110466;28;20726;-63
2022/06/19 01:20:33;;;;;;;0.85;0.80;;;25.20;47.30;;;;;;5110155;28;20048;-63
2022/06/19 01:23:15;;;;;;;0.80;0.80;;;25.20;47.30;;;;;;5109107;28;20086;-63
2022/06/19 01:25:43;;;;;;;0.60;0.60;;;25.20;47.40;;;;;;5110454;28;20492;-63
2022/06/19 01:31:09;;;;;;;0.60;0.60;;;25.10;47.30;;;;;;5089380;28;20135;-63
2022/06/19 01:33:48;;;;;;;0.80;0.70;;;25.10;47.40;;;;;;5090273;28;20056;-63
2022/06/19 01:36:21;;;;;;;0.60;0.60;;;25.10;47.40;;;;;;5088817;28;20409;-63
2022/06/19 01:38:53;;;;;;;0.77;0.70;;;25.10;47.40;;;;;;5088932;28;20047;-63
2022/06/19 01:41:33;;;;;;;0.90;0.68;;;25.10;47.40;;;;;;5089742;28;20451;-63
2022/06/19 01:44:00;;;;;;;;;;;25.10;47.50;;;;;;5090785;28;20048;-63
2022/06/19 01:46:29;;;;;;;0.70;0.70;;;25.10;47.50;;;;;;5089382;28;19923;-63
2022/06/19 01:48:57;;;;;;;0.82;0.82;;;25.10;47.50;;;;;;5090769;28;20097;-63
2022/06/19 01:51:24;;;;;;;0.55;0.55;;;25.10;47.50;;;;;;5088238;28;20545;-63
2022/06/19 01:54:08;;;;;;;0.98;0.65;;;25.10;47.50;;;;;;5088749;28;20044;-63
2022/06/19 01:56:35;;;;;;;0.93;0.55;;;25.10;47.60;;;;;;5097914;28;20047;-63
2022/06/19 01:59:07;;;;;;;0.82;0.82;;;25.10;47.60;;;;;;5089639;28;20105;-63
2022/06/19 02:01:36;;;;;;;1.05;0.88;;;25.10;47.60;;;;;;5091731;28;20101;-63
2022/06/19 02:04:05;;;;;;;0.85;0.85;;;25.10;47.60;;;;;;5098710;28;20056;-63
2022/06/19 02:06:46;;;;;;;0.80;0.80;;;25.10;47.60;;;;;;5088829;28;20055;-63
2022/06/19 02:09:17;;;;;;;0.50;0.50;;;25.00;47.50;;;;;;5109845;28;20055;-64
2022/06/19 02:11:44;;;;;;;0.50;0.50;;;25.10;47.60;;;;;;5109306;28;20047;-63
2022/06/19 02:14:13;;;;;;;0.68;0.68;;;25.10;47.60;;;;;;5109028;28;20044;-63
2022/06/19 02:16:42;;;;;;;0.73;0.73;;;25.00;47.60;;;;;;5109196;27;20501;-63
2022/06/19 02:19:10;;;;;;;1.77;0.80;;;25.10;47.60;;;;;;5107708;28;20097;-63
2022/06/19 02:21:48;;;;;;;0.60;0.60;;;25.10;47.70;;;;;;5088657;28;20574;-64
2022/06/19 02:24:19;;;;;;;0.85;0.70;;;25.10;47.60;;;;;;5089149;28;20095;-63
2022/06/19 02:26:48;;;;;;;0.77;0.77;;;25.10;47.70;;;;;;5088834;28;20459;-64
2022/06/19 02:29:18;;;;;;;0.60;0.60;;;25.00;47.60;;;;;;5094084;28;20507;-64
2022/06/19 02:31:50;;;;;;;0.85;0.80;;;25.10;47.70;;;;;;5108788;28;20488;-64
2022/06/19 02:34:38;;;;;;;1.02;1.02;;;25.00;47.60;;;;;;5109677;28;20869;-63
2022/06/19 02:37:21;;;;;;;0.60;0.60;;;25.00;47.70;;;;;;5108726;28;20047;-64
2022/06/19 02:40:19;;;;;;;0.60;0.60;;;25.00;47.70;;;;;;5108915;28;20047;-64
2022/06/19 02:42:47;;;;;;;0.63;0.63;;;25.00;47.70;;;;;;5109019;28;20094;-64
2022/06/19 02:45:18;;;;;;;0.73;0.70;;;25.00;47.70;;;;;;5108089;28;20207;-64
2022/06/19 02:47:47;;;;;;;0.82;0.73;;;25.00;47.70;;;;;;5108752;28;20094;-64
2022/06/19 02:50:20;;;;;;;0.93;0.85;;;25.00;47.70;;;;;;5107928;28;20083;-64
2022/06/19 02:52:49;;;;;;;0.80;0.80;;;25.00;47.70;;;;;;5108573;28;20047;-64
2022/06/19 02:55:17;;;;;;;0.52;0.52;;;25.00;47.80;;;;;;5108967;28;20616;-63
2022/06/19 02:57:44;;;;;;;0.77;0.60;;;25.00;47.80;;;;;;5108780;28;20448;-64
2022/06/19 03:00:16;;;;;;;1.10;1.00;;;25.00;47.80;;;;;;5108290;28;20175;-64
2022/06/19 03:02:44;;;;;;;0.90;0.90;;;25.00;47.80;;;;;;5109219;28;20076;-64
2022/06/19 03:05:20;;;;;;;0.65;0.65;;;25.00;47.80;;;;;;5108578;28;20048;-64
2022/06/19 03:07:47;;;;;;;0.55;0.55;;;25.00;47.80;;;;;;5107449;28;20108;-64
2022/06/19 03:10:16;;;;;;;0.85;0.60;;;25.00;47.80;;;;;;5109072;28;20138;-63
2022/06/19 03:12:44;;;;;;;0.50;0.50;;;25.00;47.90;;;;;;5108642;28;20087;-64
2022/06/19 03:15:12;;;;;;;0.60;0.60;;;25.00;47.80;;;;;;5108379;28;20126;-64
2022/06/19 03:17:39;;;;;;;0.52;0.52;;;25.00;47.80;;;;;;5107607;28;20047;-64
2022/06/19 03:20:08;;;;;;;1.10;0.77;;;25.00;47.80;;;;;;5108611;28;20563;-64
2022/06/19 03:22:35;;;;;;;0.73;0.73;;;25.00;47.90;;;;;;5106898;28;20087;-63
2022/06/19 03:25:03;;;;;;;0.60;0.60;;;25.00;47.80;;;;;;5108848;28;20044;-64
2022/06/19 03:27:30;;;;;;;0.63;0.63;;;25.00;47.80;;;;;;5108860;28;20557;-63
2022/06/19 03:29:57;;;;;;;0.70;0.70;;;25.00;47.70;;;;;;5108710;28;20083;-64
2022/06/19 03:32:25;;;;;;;0.70;0.70;;;25.10;47.80;;;;;;5108394;28;20492;-63
2022/06/19 03:34:52;;;;;;;0.73;0.70;;;25.00;47.70;;;;;;5109039;28;20128;-64
2022/06/19 03:37:19;;;;;;;0.82;0.82;;;25.10;47.70;;;;;;5108520;28;20043;-64
2022/06/19 03:39:48;;;;;;;0.70;0.70;;;25.10;47.70;;;;;;5108776;28;20472;-64
2022/06/19 03:42:16;;;;;;;0.52;0.52;;;25.10;47.60;;;;;;5108413;28;20143;-64
2022/06/19 03:44:43;;;;;;;0.55;0.52;;;25.10;47.60;;;;;;5108733;28;20085;-65
2022/06/19 03:47:15;;;;;;;0.80;0.80;;;25.10;47.60;;;;;;5108294;28;20083;-64
2022/06/19 03:49:43;;;;;;;0.73;0.73;;;25.10;47.50;;;;;;5108559;28;20149;-64
2022/06/19 03:52:10;;;;;;;0.60;0.60;;;25.10;47.50;;;;;;5108539;28;20079;-63
2022/06/19 03:54:37;;;;;;;0.70;0.70;;;25.20;47.50;;;;;;5108135;28;20047;-63
2022/06/19 03:57:04;;;;;;;0.60;0.60;;;25.20;47.50;;;;;;5095179;28;20109;-63
2022/06/19 03:59:32;;;;;;;0.98;0.98;;;25.20;47.40;;;;;;5088358;28;20076;-63
2022/06/19 04:01:59;;;;;;;0.68;0.68;;;25.30;47.50;;;;;;5087677;28;20067;-64
2022/06/19 04:04:26;;;;;;;0.65;0.65;;;25.20;47.30;;;;;;5088124;28;20079;-64
2022/06/19 04:06:54;;;;;;;0.63;0.63;;;25.30;47.30;;;;;;5087075;28;20141;-64
2022/06/19 04:09:21;;;;;;;0.55;0.55;;;25.30;47.30;;;;;;5086490;28;20477;-63
2022/06/19 04:11:48;;;;;;;0.60;0.60;;;25.30;47.30;;;;;;5089257;28;20480;-64
2022/06/19 04:14:16;;;;;;;1.00;1.00;;;25.30;47.20;;;;;;5091205;28;20040;-63
2022/06/19 04:16:43;;;;;;;0.65;0.65;;;25.30;47.20;;;;;;5091552;28;20079;-62
2022/06/19 04:19:12;;;;;;;0.60;0.60;;;25.40;47.20;;;;;;5091411;28;20044;-63
2022/06/19 04:21:43;;;;;;;0.57;0.57;;;25.40;47.20;;;;;;5090847;28;20093;-63
2022/06/19 04:24:14;;;;;;;0.57;0.50;;;25.40;47.10;;;;;;5090043;28;20044;-63
2022/06/19 04:26:42;;;;;;;0.80;0.80;;;25.40;47.00;;;;;;5091016;28;20533;-63
2022/06/19 04:29:10;;;;;;;0.50;0.50;;;25.40;47.00;;;;;;5091322;28;20603;-63
2022/06/19 04:31:37;;;;;;;0.40;0.40;;;25.50;47.00;;;;;;5090981;28;20071;-63
2022/06/19 04:34:04;;;;;;;0.40;0.40;;;25.50;46.90;;;;;;5089777;28;20090;-63
2022/06/19 04:36:32;;;;;;;0.77;0.77;;;25.50;46.80;;;;;;5090881;28;20044;-63
2022/06/19 04:38:59;;;;;;;0.95;0.60;;;25.50;46.70;;;;;;5090827;28;20048;-63
2022/06/19 04:41:31;;;;;;;0.50;0.50;;;25.60;46.80;;;;;;5089398;28;20834;-63
2022/06/19 04:43:59;;;;;;;0.60;0.57;;;25.60;46.70;;;;;;5089476;28;20105;-64
2022/06/19 04:46:28;;;;;;;0.70;0.70;;;25.60;46.70;;;;;;5091120;28;20135;-63
2022/06/19 04:48:57;;;;;;;0.60;0.60;;;25.70;46.70;;;;;;5091058;28;20048;-64
2022/06/19 04:51:25;;;;;;;0.70;0.70;;;25.70;46.60;;;;;;5090963;28;20135;-63
2022/06/19 04:53:55;;;;;;;0.57;0.57;;;25.70;46.60;;;;;;5089404;28;20047;-63
2022/06/19 04:56:23;;;;;;;0.60;0.60;;;25.70;46.50;;;;;;5096760;28;20075;-63
2022/06/19 04:58:51;;;;;;;0.50;0.50;;;25.70;46.40;;;;;;5111217;28;20507;-63
2022/06/19 05:01:25;;;;;;;0.57;0.57;;;25.80;46.40;;;;;;5110401;28;20048;-63
2022/06/19 05:03:54;;;;;;;0.38;0.38;;;25.80;46.40;;;;;;5110933;28;20135;-63
2022/06/19 05:06:22;;;;;;;0.90;0.50;;;25.80;46.30;;;;;;5110946;27;20044;-63
2022/06/19 05:08:49;;;;;;;0.65;0.65;;;25.80;46.20;;;;;;5110226;28;20048;-63
2022/06/19 05:11:17;;;;;;;1.67;0.75;;;25.90;46.30;;;;;;5110519;28;20051;-63
2022/06/19 05:13:44;;;;;;;0.80;0.80;;;25.80;46.30;;;;;;5110933;28;20129;-63
2022/06/19 05:16:15;;;;;;;1.05;0.75;;;25.70;46.40;;;;;;5110580;28;20135;-63
2022/06/19 05:18:42;;;;;;;;;;;25.60;46.70;;;;;;5109871;28;20488;-63
2022/06/19 05:21:11;;;;;;;0.80;0.80;;;25.40;47.00;;;;;;5110762;28;19919;-63
2022/06/19 05:23:41;;;;;;;0.80;0.80;;;25.10;47.50;;;;;;5109916;28;20047;-63
2022/06/19 05:26:13;;;;;;;;;;;24.90;48.10;;;;;;5109181;28;20134;-63
2022/06/19 05:28:40;;;;;;;1.05;1.05;;;24.60;48.60;;;;;;5110451;28;19973;-63
2022/06/19 05:31:07;;;;;;;0.90;0.90;;;24.20;48.50;;;;;;5109808;28;20078;-63
2022/06/19 05:33:35;;;;;;;1.05;0.70;;;23.80;48.50;;;;;;5110487;28;20047;-63
2022/06/19 05:36:03;;;;;;;1.10;1.10;;;23.40;48.30;;;;;;5110141;28;20090;-63
2022/06/19 05:38:30;;;;;;;0.90;0.90;;;23.00;48.30;;;;;;5108983;28;20469;-63
2022/06/19 05:40:59;;;;;;;0.90;0.90;;;22.60;48.60;;;;;;5109618;28;20636;-62
2022/06/19 05:43:29;;;;;;;1.13;1.08;;;22.20;49.00;;;;;;5109881;28;20100;-62
2022/06/19 05:46:03;;;;;;;1.17;1.07;;;21.90;49.40;;;;;;5110325;28;20047;-63
2022/06/19 05:48:31;;;;;;;0.90;0.90;;;21.60;49.90;;;;;;5109895;28;20300;-62
2022/06/19 05:51:08;;;;;;;1.00;1.00;;;21.30;50.30;;;;;;5109773;28;20047;-63
2022/06/19 05:53:41;;;;;;;1.13;1.08;;;21.10;50.90;;;;;;5109937;28;20047;-62
2022/06/19 05:56:10;;;;;;;1.20;1.15;;;20.90;52.00;;;;;;5103832;28;20040;-63
2022/06/19 05:58:38;;;;;;;1.40;1.30;;;20.70;52.50;;;;;;5088203;28;20139;-63
2022/06/19 06:01:06;;;;;;;2.38;1.20;;;20.60;52.90;;;;;;5088200;28;20062;-63
2022/06/19 06:03:33;;;;;;;1.20;1.20;;;20.40;53.10;;;;;;5088543;28;20052;-63
2022/06/19 06:06:06;;;;;;;1.20;1.20;;;20.40;53.90;;;;;;5089214;28;20687;-62
2022/06/19 06:08:37;;;;;;;1.05;1.05;;;20.30;54.50;;;;;;5089262;28;20089;-62
2022/06/19 06:11:05;;;;;;;1.40;1.33;;;20.20;55.00;;;;;;5088727;28;20090;-65
2022/06/19 06:13:32;;;;;;;1.10;1.10;;;20.20;55.40;;;;;;5089082;28;20079;-62
2022/06/19 06:16:00;;;;;;;1.42;1.40;;;20.20;56.20;;;;;;5087830;28;20450;-62
2022/06/19 06:18:28;;;;;;;1.50;1.40;;;20.20;56.10;;;;;;5089232;28;20106;-62
2022/06/19 06:20:58;;;;;;;1.40;1.30;;;20.20;56.10;;;;;;5089066;28;20471;-62
2022/06/19 06:23:26;;;;;;;1.67;1.57;;;20.20;55.70;;;;;;5089288;28;20051;-62
2022/06/19 06:26:03;;;;;;;1.42;1.33;;;20.20;55.70;;;;;;5088861;28;20113;-62
2022/06/19 06:28:32;;;;;;;1.40;1.30;;;20.20;55.70;;;;;;5088019;28;20087;-62
2022/06/19 06:30:59;;;;;;;2.17;1.23;;;20.20;55.40;;;;;;5087566;28;20553;-62
2022/06/19 06:33:26;;;;;;;1.45;1.35;;;20.20;55.40;;;;;;5088745;28;20071;-63
2022/06/19 06:35:54;;;;;;;1.83;1.73;;;20.10;55.80;;;;;;5088152;28;20048;-62
2022/06/19 06:38:22;;;;;;;1.42;1.33;;;20.10;55.60;;;;;;5088582;28;20078;-63
2022/06/19 06:40:50;;;;;;;1.30;1.30;;;20.20;55.60;;;;;;5088000;28;20411;-62
2022/06/19 06:43:19;;;;;;;1.30;1.20;;;20.20;55.60;;;;;;5096782;28;20537;-62
2022/06/19 06:45:48;;;;;;;1.33;1.33;;;20.10;55.60;;;;;;5101073;28;20101;-62
2022/06/19 06:48:16;;;;;;;1.27;1.27;;;20.10;55.50;;;;;;5091772;28;20040;-63
2022/06/19 06:50:44;;;;;;;1.33;1.30;;;20.10;55.70;;;;;;5088571;28;20044;-62
2022/06/19 06:53:12;;;;;;;1.45;1.40;;;20.10;55.70;;;;;;5091564;28;20081;-64
2022/06/19 06:55:42;;;;;;;1.20;1.20;;;20.10;55.80;;;;;;5100599;28;20369;-62
2022/06/19 06:58:10;;;;;;;1.40;1.30;;;20.00;56.00;;;;;;5090531;28;20093;-62
2022/06/19 07:00:37;;;;;;;1.48;1.38;;;20.00;55.90;;;;;;5098689;28;20047;-62
2022/06/19 07:03:06;;;;;;;1.50;1.40;;;20.00;55.90;;;;;;5091340;28;20039;-63
2022/06/19 07:05:33;;;;;;;1.48;1.38;;;20.00;56.50;;;;;;5101960;28;20047;-62
2022/06/19 07:08:00;;;;;;;1.60;1.50;;;20.00;56.50;;;;;;5108956;28;20044;-62
2022/06/19 07:10:28;;;;;;;1.40;1.30;;;20.00;56.40;;;;;;5108397;28;20073;-62
2022/06/19 07:12:55;;;;;;;1.33;1.25;;;20.00;56.40;;;;;;5109308;28;20052;-62
2022/06/19 07:15:23;;;;;;;1.30;1.30;;;20.00;56.50;;;;;;5109050;28;20404;-63
2022/06/19 07:17:50;;;;;;;1.27;1.02;;;20.00;56.50;;;;;;5108614;28;20116;-63
2022/06/19 07:20:17;;;;;;;1.70;1.60;;;20.00;56.30;;;;;;5107540;28;20130;-63
2022/06/19 07:22:45;;;;;;;1.50;1.40;;;20.00;56.60;;;;;;5108260;28;20500;-63
2022/06/19 07:25:17;;;;;;;1.73;1.63;;;20.00;56.60;;;;;;5108652;28;20499;-62
2022/06/19 07:27:45;;;;;;;2.80;1.33;;;20.00;56.60;;;;;;5108141;28;20135;-63
2022/06/19 07:30:22;;;;;;;2.83;1.42;;;20.00;56.60;;;;;;5108756;28;20429;-62
2022/06/19 07:32:49;;;;;;;1.73;1.63;;;20.00;56.60;;;;;;5108468;28;20044;-62
2022/06/19 07:35:17;;;;;;;1.20;1.20;;;20.00;56.80;;;;;;5108481;28;20692;-62
2022/06/19 07:37:44;;;;;;;1.70;1.60;;;20.00;56.70;;;;;;5108618;28;20047;-62
2022/06/19 07:40:15;;;;;;;1.40;1.40;;;20.00;56.80;;;;;;5108434;28;20075;-62
2022/06/19 07:42:43;;;;;;;1.50;1.33;;;20.10;56.90;;;;;;5108550;28;20059;-62
2022/06/19 07:45:12;;;;;;;1.70;1.60;;;20.10;56.80;;;;;;5108621;28;20094;-62
2022/06/19 07:50:27;;;;;;;1.48;1.38;;;20.10;56.80;;;;;;5112202;28;20106;-63
2022/06/19 07:52:54;;;;;;;1.48;1.38;;;20.20;56.70;;;;;;5112370;28;20048;-62
2022/06/19 07:55:25;;;;;;;1.27;1.27;;;20.20;56.70;;;;;;5112393;28;20048;-64
2022/06/19 07:57:53;;;;;;;1.55;1.45;;;20.20;56.80;;;;;;5091561;28;20520;-62
2022/06/19 08:00:27;;;;;;;1.25;1.17;;;20.30;56.80;;;;;;5091449;28;20484;-63
2022/06/19 08:02:54;;;;;;;1.70;1.48;;;20.20;56.80;;;;;;5091598;28;20138;-63
2022/06/19 08:05:24;;;;;;;1.83;1.50;;;20.30;56.80;;;;;;5090503;28;20048;-63
2022/06/19 08:07:53;;;;;;;1.63;1.52;;;20.30;56.80;;;;;;5091586;28;20576;-63
2022/06/19 08:10:23;;;;;;;1.85;1.75;;;20.30;56.80;;;;;;5091447;28;20052;-63
2022/06/19 08:12:52;;;;;;;1.40;1.30;;;20.30;56.90;;;;;;5091546;28;20471;-63
2022/06/19 08:15:20;;;;;;;1.55;1.40;;;20.30;56.90;;;;;;5091454;28;20087;-63
2022/06/19 08:17:47;;;;;;;1.67;1.55;;;20.30;56.80;;;;;;5091430;28;20052;-63
2022/06/19 08:20:16;;;;;;;1.45;1.40;;;20.30;56.70;;;;;;5091323;28;20143;-63
2022/06/19 08:22:44;;;;;;;1.50;1.40;;;20.30;56.80;;;;;;5091216;28;20548;-63
2022/06/19 08:25:13;;;;;;;1.48;1.38;;;20.40;56.80;;;;;;5090708;28;20093;-63
2022/06/19 08:27:43;;;;;;;1.60;1.50;;;20.40;56.80;;;;;;5090700;28;20574;-63
2022/06/19 08:30:24;;;;;;;1.70;1.60;;;20.30;56.80;;;;;;5091146;28;20044;-63
2022/06/19 08:32:52;;;;;;;1.48;1.38;;;20.40;56.90;;;;;;5091140;28;20483;-63
2022/06/19 08:35:21;;;;;;;1.20;1.20;;;20.40;56.90;;;;;;5090250;28;20442;-63
2022/06/19 08:37:52;;;;;;;1.80;1.70;;;20.40;56.70;;;;;;5089722;28;20522;-63
2022/06/19 08:40:58;;;;;;;2.00;1.50;;;20.40;56.60;;;;;;5090742;28;20077;-63
2022/06/19 08:44:05;;;;;;;1.42;1.33;;;20.40;56.70;;;;;;5089592;28;20127;-63
2022/06/19 08:47:09;;;;;;;1.58;1.48;;;20.40;56.60;;;;;;5091035;28;20051;-63
2022/06/19 08:49:55;;;;;;;1.27;1.17;;;20.40;56.50;;;;;;5089727;28;20051;-63
2022/06/19 08:53:02;;;;;;;1.33;1.23;;;20.40;56.50;;;;;;5090343;28;20572;-65
2022/06/19 08:55:48;;;;;;;1.20;1.10;;;20.40;56.50;;;;;;5090809;28;20412;-63
2022/06/19 08:58:45;;;;;;;1.67;1.58;;;20.40;56.40;;;;;;5089887;28;20131;-63
2022/06/19 09:01:43;;;;;;;1.85;1.38;;;20.40;56.40;;;;;;5089891;28;20076;-63
2022/06/19 09:07:55;;;;;;;1.88;1.50;;;20.40;56.70;;;;;;5090590;28;20048;-63
2022/06/19 09:10:45;;;;;;;2.13;1.85;;;20.40;56.60;;;;;;5107320;28;20048;-63
2022/06/19 09:13:38;;;;;;;1.58;1.48;;;20.50;56.60;;;;;;5111301;28;20124;-63
2022/06/19 09:16:29;;;;;;;2.08;1.50;;;20.50;56.60;;;;;;5110547;28;20047;-63
2022/06/19 09:19:22;;;;;;;1.73;1.02;;;20.50;56.50;;;;;;5110923;28;20075;-63
2022/06/19 09:22:26;;;;;;;1.73;1.63;;;20.50;56.40;;;;;;5110760;28;20134;-63
2022/06/19 09:25:11;;;;;;;1.42;1.33;;;20.60;56.50;;;;;;5110498;28;20044;-63
2022/06/19 09:28:07;;;;;;;1.50;1.48;;;20.60;56.50;;;;;;5110505;28;20051;-63
2022/06/19 09:30:45;;;;;;;1.33;1.33;;;20.60;56.50;;;;;;5108548;28;20527;-63
2022/06/19 09:33:36;;;;;;;1.90;1.50;;;20.50;56.50;;;;;;5101058;28;20473;-63
2022/06/19 09:36:19;;;;;;;1.73;1.63;;;20.50;56.60;;;;;;5101769;28;20098;-63
2022/06/19 09:39:11;;;;;;;1.45;1.45;;;20.50;56.70;;;;;;5105065;28;20063;-63
2022/06/19 09:41:51;;;;;;;1.25;1.25;;;20.50;56.60;;;;;;5089666;28;20106;-64
2022/06/19 09:44:45;;;;;;;1.55;1.45;;;20.50;56.80;;;;;;5089457;28;20055;-63
2022/06/19 09:47:22;;;;;;;1.70;1.60;;;20.50;56.90;;;;;;5089793;28;20048;-63
2022/06/19 09:50:04;;;;;;;1.70;1.60;;;20.50;57.30;;;;;;5088803;28;20117;-63
2022/06/19 09:52:42;;;;;;;1.80;1.70;;;20.60;57.40;;;;;;5089861;28;20083;-63
2022/06/19 09:55:25;;;;;;;1.45;1.40;;;20.50;57.10;;;;;;5089734;28;20467;-62
2022/06/19 09:58:14;;;;;;;3.50;1.48;;;20.60;56.90;;;;;;5109251;28;20047;-63
2022/06/19 10:00:45;;;;;;;3.15;1.67;;;20.60;56.70;;;;;;5109592;27;20047;-63
2022/06/19 10:03:40;;;;;;;2.70;1.70;;;20.50;56.60;;;;;;5109773;28;20112;-63
2022/06/19 10:06:25;;;;;;;1.90;1.80;;;20.50;56.40;;;;;;5109234;28;20104;-63
2022/06/19 10:08:57;;;;;;;1.85;1.75;;;20.50;56.20;;;;;;5109556;28;20056;-63
2022/06/19 10:11:29;;;;;;;1.58;1.50;;;20.50;56.00;;;;;;5109389;28;20458;-63
2022/06/19 10:14:27;;;;;;;1.45;1.35;;;20.40;55.80;;;;;;5091947;28;20048;-63
2022/06/19 10:17:14;;;;;;;1.55;1.45;;;20.40;55.90;;;;;;5109435;28;20052;-63
2022/06/19 10:19:52;;;;;;;1.70;1.60;;;20.40;55.70;;;;;;5109570;28;20047;-63
2022/06/19 10:22:47;;;;;;;1.27;1.20;;;20.30;55.70;;;;;;5108180;28;20043;-63
2022/06/19 10:25:45;;;;;;;1.38;1.20;;;20.30;55.60;;;;;;5109204;28;20496;-63
2022/06/19 10:28:52;;;;;;;1.20;1.20;;;20.20;55.80;;;;;;5108858;28;20501;-63
2022/06/19 10:31:55;;;;;;;1.40;1.40;;;20.20;55.90;;;;;;5108815;28;20559;-63
2022/06/19 10:34:36;;;;;;;1.50;1.40;;;20.20;56.10;;;;;;5108527;28;20083;-63
2022/06/19 10:37:21;;;;;;;1.33;1.17;;;20.10;56.00;;;;;;5109037;28;20044;-63
2022/06/19 10:40:29;;;;;;;1.10;1.10;;;20.10;56.10;;;;;;5109558;28;20055;-63
2022/06/19 10:43:28;;;;;;;2.33;2.13;;;20.10;56.30;;;;;;5109234;28;20052;-63
2022/06/19 10:45:58;;;;;;;1.25;1.25;;;20.10;56.40;;;;;;5108649;28;20043;-63
2022/06/19 10:48:30;;;;;;;1.10;1.10;;;20.10;56.50;;;;;;5109170;28;20553;-63
2022/06/19 10:51:31;;;;;;;1.10;1.10;;;20.10;56.60;;;;;;5109207;28;20408;-63
2022/06/19 10:54:24;;;;;;;1.45;1.35;;;20.10;56.80;;;;;;5108222;28;20047;-63
2022/06/19 10:57:35;;;;;;;3.30;1.50;;;20.10;56.90;;;;;;5097118;28;20043;-63
2022/06/19 11:00:05;;;;;;;1.38;1.38;;;20.10;57.00;;;;;;5087146;28;20489;-63
2022/06/19 11:05:54;;;;;;;1.27;1.27;;;20.20;57.20;;;;;;5088252;28;20515;-62
2022/06/19 11:08:26;;;;;;;1.25;1.20;;;20.20;57.10;;;;;;5088505;28;20040;-63
2022/06/19 11:10:58;;;;;;;1.60;1.50;;;20.20;57.10;;;;;;5088215;28;20047;-64
2022/06/19 11:14:09;;;;;;;1.45;1.23;;;20.30;57.20;;;;;;5088659;28;20039;-63
2022/06/19 11:16:58;;;;;;;1.30;1.30;;;20.30;57.20;;;;;;5089817;28;20098;-63
2022/06/19 11:19:42;;;;;;;1.75;1.65;;;20.40;57.20;;;;;;5087379;28;20398;-63
2022/06/19 11:22:38;;;;;;;1.33;1.20;;;20.40;57.20;;;;;;5092081;28;20048;-63
2022/06/19 11:25:30;;;;;;;1.00;1.00;;;20.40;57.00;;;;;;5091468;28;20089;-63
2022/06/19 11:28:09;;;;;;;1.40;1.30;;;20.40;56.70;;;;;;5092498;28;20070;-63
2022/06/19 11:30:45;;;;;;;1.40;1.30;;;20.40;56.70;;;;;;5092236;28;20044;-63
2022/06/19 11:33:32;;;;;;;1.15;1.15;;;20.40;56.50;;;;;;5074338;28;20174;-63
2022/06/19 11:36:05;;;;;;;1.20;1.20;;;20.30;56.60;;;;;;5091241;28;20125;-63
2022/06/19 11:38:43;;;;;;;1.42;1.38;;;20.30;56.50;;;;;;5092630;28;20128;-63
2022/06/19 11:41:32;;;;;;;1.13;1.13;;;20.20;56.50;;;;;;5091902;28;20076;-63
2022/06/19 11:44:13;;;;;;;1.10;1.10;;;20.20;56.50;;;;;;5091965;28;20453;-63
2022/06/19 11:46:51;;;;;;;1.40;1.40;;;20.20;56.50;;;;;;5091656;28;20048;-63
2022/06/19 11:49:31;;;;;;;1.20;1.15;;;20.20;56.40;;;;;;5090795;28;20052;-63
2022/06/19 11:52:10;;;;;;;1.02;1.02;;;20.20;56.40;;;;;;5091934;28;20044;-63
2022/06/19 11:54:43;;;;;;;1.23;1.13;;;20.10;56.40;;;;;;5092261;28;20447;-63
2022/06/19 11:57:31;;;;;;;1.00;1.00;;;20.10;56.30;;;;;;5104237;28;20121;-63
2022/06/19 12:00:03;;;;;;;1.33;1.33;;;20.10;56.40;;;;;;5112153;28;20089;-63
2022/06/19 12:02:36;;;;;;;1.20;1.20;;;20.00;56.50;;;;;;5110996;28;20101;-63
2022/06/19 12:05:25;;;;;;;2.15;1.38;;;20.10;56.70;;;;;;5112036;28;20468;-64
2022/06/19 12:07:53;;;;;;;1.00;1.00;;;20.10;56.80;;;;;;5111680;28;20112;-63
2022/06/19 12:10:26;;;;;;;1.10;1.10;;;20.10;56.90;;;;;;5111470;28;20054;-63
2022/06/19 12:12:56;;;;;;;1.25;1.23;;;20.10;56.80;;;;;;5112133;28;20048;-63
2022/06/19 12:15:30;;;;;;;1.25;1.25;;;20.10;57.00;;;;;;5111426;28;20484;-63
2022/06/19 12:18:17;;;;;;;1.42;1.42;;;20.10;57.00;;;;;;5111589;27;20048;-63
2022/06/19 12:21:00;;;;;;;1.13;1.13;;;20.20;57.00;;;;;;5111246;28;20083;-63
2022/06/19 12:23:43;;;;;;;1.10;1.10;;;20.20;57.60;;;;;;5111548;28;20529;-63
2022/06/19 12:26:16;;;;;;;1.30;1.30;;;20.20;57.10;;;;;;5111897;28;20052;-63
2022/06/19 12:28:54;;;;;;;1.17;1.13;;;20.20;57.10;;;;;;5111696;28;20075;-63
2022/06/19 12:31:30;;;;;;;1.50;1.40;;;20.20;57.30;;;;;;5111102;28;20051;-63
2022/06/19 12:34:30;;;;;;;1.20;1.20;;;20.20;57.30;;;;;;5110233;28;20039;-63
2022/06/19 12:36:59;;;;;;;1.00;1.00;;;20.30;57.30;;;;;;5079260;28;20047;-63
2022/06/19 12:39:31;;;;;;;1.23;1.17;;;20.30;57.40;;;;;;5111301;27;20097;-63
2022/06/19 12:42:22;;;;;;;1.23;1.13;;;20.30;57.30;;;;;;5111487;28;20050;-63
2022/06/19 12:45:13;;;;;;;1.10;1.10;;;20.30;57.30;;;;;;5111530;28;20051;-63
2022/06/19 12:48:11;;;;;;;1.27;1.20;;;20.30;57.30;;;;;;5110715;27;20495;-63
2022/06/19 12:50:49;;;;;;;1.10;1.10;;;20.40;57.40;;;;;;5110358;28;20085;-63
2022/06/19 12:53:45;;;;;;;1.20;1.20;;;20.40;57.30;;;;;;5111203;28;20463;-63
2022/06/19 12:56:41;;;;;;;1.00;1.00;;;20.50;57.30;;;;;;5104742;27;20040;-63
2022/06/19 12:59:48;;;;;;;1.20;1.10;;;20.50;57.30;;;;;;5089369;28;20052;-63
2022/06/19 13:02:45;;;;;;;1.00;1.00;;;20.50;57.30;;;;;;5090035;28;20127;-63
2022/06/19 13:05:40;;;;;;;1.30;1.20;;;20.50;57.40;;;;;;5089316;28;20444;-63
2022/06/19 13:08:34;;;;;;;0.90;0.90;;;20.50;57.40;;;;;;5090213;28;20090;-63
2022/06/19 13:11:30;;;;;;;1.10;1.10;;;20.50;57.30;;;;;;5089824;28;20079;-63
2022/06/19 13:14:29;;;;;;;0.90;0.90;;;20.60;57.30;;;;;;5090850;28;20048;-63
2022/06/19 13:17:25;;;;;;;1.10;1.10;;;20.60;57.50;;;;;;5089832;28;20036;-63
2022/06/19 13:20:14;;;;;;;0.90;0.90;;;20.60;57.50;;;;;;5090602;28;20468;-63
2022/06/19 13:23:12;;;;;;;0.80;0.80;;;20.70;57.50;;;;;;5090286;28;20097;-63
2022/06/19 13:27:10;;;;;;;0.98;0.98;;;20.70;57.30;;;;;;5090447;28;20090;-63
2022/06/19 13:29:20;;;;;;;1.15;1.05;;;20.70;57.30;;;;;;5089952;28;20051;-63
2022/06/19 13:31:54;;;;;;;1.02;1.02;;;20.70;57.30;;;;;;5089532;28;20044;-63
2022/06/19 13:34:31;;;;;;;1.08;1.08;;;20.80;57.30;;;;;;5089339;28;20093;-63
2022/06/19 13:37:36;;;;;;;0.90;0.90;;;20.80;57.10;;;;;;5090542;28;20121;-63
2022/06/19 13:40:20;;;;;;;1.27;1.17;;;20.80;57.20;;;;;;5089955;28;20163;-63
2022/06/19 13:43:12;;;;;;;1.58;1.02;;;20.80;57.20;;;;;;5088723;28;20109;-63